Time;durP1;ratioP1;P1;durP2;ratioP2;P2;SDS_P1;SDS_P2;PMS_P1;PMS_P2;Temp;Humidity;BMP_temperature;BMP_pressure;BME280_temperature;BME280_humidity;BME280_pressure;Samples;Min_cycle;Max_cycle;Signal;HPM_P1;HPM_P2
2024/03/31 00:01:33;;;;;;;70.30;8.63;;;;;;;;;;5070714;28;20894;-67
2024/03/31 00:04:01;;;;;;;72.93;9.77;;;;;;;;;;5070956;28;20848;-67
2024/03/31 00:06:27;;;;;;;67.53;9.53;;;;;;;;;;5071456;28;20444;-68
2024/03/31 00:08:54;;;;;;;71.53;9.70;;;;;;;;;;5074008;28;20463;-68
2024/03/31 00:11:20;;;;;;;72.53;10.60;;;;;;;;;;5074784;28;20481;-68
2024/03/31 00:13:47;;;;;;;70.13;9.70;;;;;;;;;;5074778;28;20469;-68
2024/03/31 00:16:14;;;;;;;73.73;10.40;;;;;;;;;;5075455;28;20474;-68
2024/03/31 00:18:41;;;;;;;73.40;10.60;;;;;;;;;;5075188;28;20475;-68
2024/03/31 00:21:09;;;;;;;69.80;9.07;;;;;;;;;;5074609;28;20450;-68
2024/03/31 00:23:36;;;;;;;72.10;10.90;;;;;;;;;;5074726;28;20475;-68
2024/03/31 00:26:02;;;;;;;89.33;12.13;;;;;;;;;;5074927;28;20899;-68
2024/03/31 00:28:29;;;;;;;71.67;8.70;;;;;;;;;;5074538;28;20468;-68
2024/03/31 00:30:56;;;;;;;79.57;11.43;;;;;;;;;;5074072;28;20440;-68
2024/03/31 00:33:24;;;;;;;72.60;10.50;;;;;;;;;;5074255;28;20948;-68
2024/03/31 00:35:54;;;;;;;77.70;9.43;;;;;;;;;;5074470;28;20531;-67
2024/03/31 00:38:21;;;;;;;73.60;10.87;;;;;;;;;;5074416;28;20855;-67
2024/03/31 00:40:48;;;;;;;69.27;9.30;;;;;;;;;;5074188;28;20447;-67
2024/03/31 00:43:16;;;;;;;79.57;10.20;;;;;;;;;;5074678;28;20481;-67
2024/03/31 00:45:42;;;;;;;70.53;10.77;;;;;;;;;;5074077;28;20940;-67
2024/03/31 00:48:10;;;;;;;71.30;9.13;;;;;;;;;;5074373;28;20475;-67
2024/03/31 00:50:37;;;;;;;69.60;9.97;;;;;;;;;;5073634;28;20447;-67
2024/03/31 00:53:05;;;;;;;76.67;10.47;;;;;;;;;;5074304;28;20521;-67
2024/03/31 00:55:31;;;;;;;69.60;9.33;;;;;;;;;;5074101;28;20577;-68
2024/03/31 00:57:59;;;;;;;72.23;8.40;;;;;;;;;;5073954;28;20501;-68
2024/03/31 01:00:25;;;;;;;68.00;9.07;;;;;;;;;;5073766;28;20454;-68
2024/03/31 01:02:52;;;;;;;70.13;8.10;;;;;;;;;;5074192;28;20500;-68
2024/03/31 01:05:18;;;;;;;73.00;8.87;;;;;;;;;;5074071;28;20454;-68
2024/03/31 01:07:46;;;;;;;82.53;9.60;;;;;;;;;;5073931;28;20538;-67
2024/03/31 01:10:12;;;;;;;70.60;8.77;;;;;;;;;;5066435;28;20455;-67
2024/03/31 01:12:40;;;;;;;82.77;9.40;;;;;;;;;;5054093;28;20449;-67
2024/03/31 01:15:06;;;;;;;66.73;8.63;;;;;;;;;;5053764;28;20437;-67
2024/03/31 01:17:33;;;;;;;76.47;10.80;;;;;;;;;;5053889;28;20530;-67
2024/03/31 01:20:00;;;;;;;66.50;7.57;;;;;;;;;;5052402;28;20948;-67
2024/03/31 01:22:27;;;;;;;69.33;8.97;;;;;;;;;;5053495;28;20445;-67
2024/03/31 01:24:55;;;;;;;71.43;9.00;;;;;;;;;;5053474;28;20570;-67
2024/03/31 01:27:22;;;;;;;65.13;8.80;;;;;;;;;;5053536;28;20518;-68
2024/03/31 01:29:48;;;;;;;67.77;10.37;;;;;;;;;;5065089;28;20937;-67
2024/03/31 01:32:15;;;;;;;71.73;8.60;;;;;;;;;;5057932;28;20485;-67
2024/03/31 01:34:44;;;;;;;72.70;8.87;;;;;;;;;;5072613;28;20448;-67
2024/03/31 01:37:11;;;;;;;77.07;9.97;;;;;;;;;;5073400;28;20788;-67
2024/03/31 01:39:37;;;;;;;67.27;9.23;;;;;;;;;;5072855;28;20606;-67
2024/03/31 01:42:06;;;;;;;77.03;10.13;;;;;;;;;;5073408;28;20468;-67
2024/03/31 01:44:32;;;;;;;70.30;9.63;;;;;;;;;;5073385;28;20491;-66
2024/03/31 01:46:59;;;;;;;70.00;9.10;;;;;;;;;;5071641;28;20486;-66
2024/03/31 01:49:25;;;;;;;71.73;8.47;;;;;;;;;;5072682;28;20466;-66
2024/03/31 01:51:52;;;;;;;70.73;9.00;;;;;;;;;;5072938;28;20491;-66
2024/03/31 01:54:19;;;;;;;74.17;8.80;;;;;;;;;;5073097;28;20444;-66
2024/03/31 01:56:46;;;;;;;69.13;8.60;;;;;;;;;;5073299;28;20540;-66
2024/03/31 01:59:13;;;;;;;67.83;8.00;;;;;;;;;;5072713;28;20610;-66
2024/03/31 02:01:40;;;;;;;71.40;8.47;;;;;;;;;;5072866;28;20505;-66
2024/03/31 02:04:06;;;;;;;68.90;7.93;;;;;;;;;;5072889;28;20490;-66
2024/03/31 02:06:34;;;;;;;66.00;7.90;;;;;;;;;;5072683;28;20531;-66
2024/03/31 02:09:00;;;;;;;66.70;8.77;;;;;;;;;;5072432;28;20824;-66
2024/03/31 02:11:27;;;;;;;63.20;8.10;;;;;;;;;;5072771;28;20506;-66
2024/03/31 02:13:53;;;;;;;71.13;8.70;;;;;;;;;;5072852;28;20448;-66
2024/03/31 02:16:23;;;;;;;75.47;9.60;;;;;;;;;;5072828;28;20447;-66
2024/03/31 02:18:49;;;;;;;72.70;12.10;;;;;;;;;;5072545;28;20546;-66
2024/03/31 02:21:16;;;;;;;69.47;11.30;;;;;;;;;;5071899;28;20540;-66
2024/03/31 02:23:42;;;;;;;72.80;10.20;;;;;;;;;;5072249;28;21041;-66
2024/03/31 02:26:09;;;;;;;74.63;12.77;;;;;;;;;;5072878;28;20444;-66
2024/03/31 02:28:36;;;;;;;72.17;10.67;;;;;;;;;;5072249;28;20986;-66
2024/03/31 02:31:03;;;;;;;70.50;9.70;;;;;;;;;;5071953;28;20460;-66
2024/03/31 02:33:30;;;;;;;64.70;7.87;;;;;;;;;;5071938;28;20447;-66
2024/03/31 02:35:57;;;;;;;78.43;8.60;;;;;;;;;;5072441;28;20535;-66
2024/03/31 02:38:24;;;;;;;74.33;9.47;;;;;;;;;;5072125;28;21049;-66
2024/03/31 02:40:51;;;;;;;73.83;9.60;;;;;;;;;;5071665;28;20444;-66
2024/03/31 02:43:17;;;;;;;76.23;11.10;;;;;;;;;;5072020;28;20958;-66
2024/03/31 02:45:44;;;;;;;74.47;14.40;;;;;;;;;;5072089;28;20448;-66
2024/03/31 02:48:10;;;;;;;74.33;11.33;;;;;;;;;;5072042;28;20497;-66
2024/03/31 02:50:39;;;;;;;66.63;7.67;;;;;;;;;;5071710;28;20451;-67
2024/03/31 02:53:05;;;;;;;73.17;8.70;;;;;;;;;;5071904;28;20452;-67
2024/03/31 02:55:32;;;;;;;67.50;7.50;;;;;;;;;;5071891;28;20497;-67
2024/03/31 02:57:58;;;;;;;70.40;8.23;;;;;;;;;;5071930;28;20470;-67
2024/03/31 03:00:25;;;;;;;66.23;8.07;;;;;;;;;;5071438;28;20527;-67
2024/03/31 03:02:51;;;;;;;67.40;7.47;;;;;;;;;;5071500;28;20897;-67
2024/03/31 03:05:18;;;;;;;70.23;9.47;;;;;;;;;;5072023;28;20482;-67
2024/03/31 03:07:46;;;;;;;66.13;7.50;;;;;;;;;;5071715;28;21017;-67
2024/03/31 03:10:13;;;;;;;73.73;10.10;;;;;;;;;;5071453;28;20940;-67
2024/03/31 03:12:39;;;;;;;66.27;6.90;;;;;;;;;;5071563;28;20450;-67
2024/03/31 03:15:06;;;;;;;69.00;8.10;;;;;;;;;;5071719;28;20476;-67
2024/03/31 03:17:32;;;;;;;68.00;8.13;;;;;;;;;;5071399;28;20550;-67
2024/03/31 03:19:59;;;;;;;71.63;7.87;;;;;;;;;;5071199;28;20444;-67
2024/03/31 03:22:26;;;;;;;69.27;6.87;;;;;;;;;;5071340;28;20531;-67
2024/03/31 03:24:55;;;;;;;63.90;7.10;;;;;;;;;;5071394;28;20571;-67
2024/03/31 03:27:21;;;;;;;72.07;8.90;;;;;;;;;;5071489;28;20448;-67
2024/03/31 03:29:48;;;;;;;80.13;9.23;;;;;;;;;;5070979;28;20472;-67
2024/03/31 03:32:14;;;;;;;72.67;9.10;;;;;;;;;;5071129;28;20448;-67
2024/03/31 03:34:42;;;;;;;72.87;8.87;;;;;;;;;;5071392;28;20474;-67
2024/03/31 03:37:09;;;;;;;67.77;8.37;;;;;;;;;;5071493;28;20460;-67
2024/03/31 03:39:36;;;;;;;71.80;8.90;;;;;;;;;;5070729;28;20454;-67
2024/03/31 03:42:04;;;;;;;67.40;6.93;;;;;;;;;;5071119;28;20456;-67
2024/03/31 03:44:31;;;;;;;72.17;9.87;;;;;;;;;;5070651;28;20547;-67
2024/03/31 03:46:57;;;;;;;66.70;8.63;;;;;;;;;;5071468;28;20839;-67
2024/03/31 03:49:24;;;;;;;73.07;7.87;;;;;;;;;;5070665;28;20463;-67
2024/03/31 03:51:51;;;;;;;62.87;6.80;;;;;;;;;;5071129;28;20444;-67
2024/03/31 03:54:19;;;;;;;71.93;6.73;;;;;;;;;;5071099;28;20995;-67
2024/03/31 03:56:45;;;;;;;73.17;8.73;;;;;;;;;;5071014;28;20825;-67
2024/03/31 03:59:14;;;;;;;66.30;7.70;;;;;;;;;;5070449;28;20468;-66
2024/03/31 04:01:40;;;;;;;67.70;7.10;;;;;;;;;;5071004;28;20452;-66
2024/03/31 04:04:07;;;;;;;64.10;6.90;;;;;;;;;;5071130;28;20553;-66
2024/03/31 04:06:33;;;;;;;73.87;9.27;;;;;;;;;;5071037;28;20951;-66
2024/03/31 04:09:00;;;;;;;69.90;8.40;;;;;;;;;;5070586;28;20470;-67
2024/03/31 04:11:27;;;;;;;65.40;7.07;;;;;;;;;;5071152;28;20891;-67
2024/03/31 04:13:54;;;;;;;64.33;8.47;;;;;;;;;;5070779;28;20490;-67
2024/03/31 04:16:22;;;;;;;89.13;19.00;;;;;;;;;;5071182;28;20536;-67
2024/03/31 04:18:50;;;;;;;77.87;11.50;;;;;;;;;;5070850;28;21051;-67
2024/03/31 04:21:17;;;;;;;70.23;7.60;;;;;;;;;;5070760;28;20458;-67
2024/03/31 04:23:44;;;;;;;68.40;7.27;;;;;;;;;;5070192;28;20896;-67
2024/03/31 04:26:11;;;;;;;64.63;6.30;;;;;;;;;;5070888;28;20547;-67
2024/03/31 04:28:37;;;;;;;66.10;6.37;;;;;;;;;;5071093;28;20844;-67
2024/03/31 04:31:04;;;;;;;67.60;7.33;;;;;;;;;;5070280;28;20569;-67
2024/03/31 04:33:32;;;;;;;64.93;6.07;;;;;;;;;;5070571;28;20451;-67
2024/03/31 04:36:00;;;;;;;72.03;8.30;;;;;;;;;;5063057;28;20515;-67
2024/03/31 04:38:26;;;;;;;82.00;8.53;;;;;;;;;;5070748;28;20478;-67
2024/03/31 04:40:56;;;;;;;63.20;7.43;;;;;;;;;;5070013;28;20447;-67
2024/03/31 04:43:22;;;;;;;65.87;7.03;;;;;;;;;;5070770;28;20443;-67
2024/03/31 04:45:59;;;;;;;63.50;7.80;;;;;;;;;;5070865;28;20472;-67
2024/03/31 04:48:25;;;;;;;63.20;7.77;;;;;;;;;;5070967;28;20494;-67
2024/03/31 04:50:54;;;;;;;65.07;7.37;;;;;;;;;;5070231;28;20538;-67
2024/03/31 04:53:20;;;;;;;65.53;6.43;;;;;;;;;;5070826;28;20458;-67
2024/03/31 04:55:47;;;;;;;63.87;6.73;;;;;;;;;;5073283;28;20440;-67
2024/03/31 04:58:13;;;;;;;64.80;5.93;;;;;;;;;;5060747;28;20495;-67
2024/03/31 05:00:40;;;;;;;69.70;7.43;;;;;;;;;;5053918;28;20444;-67
2024/03/31 05:03:06;;;;;;;61.83;6.50;;;;;;;;;;5054500;28;20451;-67
2024/03/31 05:05:37;;;;;;;62.53;6.40;;;;;;;;;;5054614;28;20508;-67
2024/03/31 05:08:05;;;;;;;64.13;5.80;;;;;;;;;;5066727;28;20467;-67
2024/03/31 05:10:32;;;;;;;65.23;6.30;;;;;;;;;;5073832;28;20451;-67
2024/03/31 05:12:59;;;;;;;65.23;6.40;;;;;;;;;;5065879;28;20801;-67
2024/03/31 05:15:26;;;;;;;68.33;7.07;;;;;;;;;;5074087;28;20447;-67
2024/03/31 05:17:53;;;;;;;67.83;7.97;;;;;;;;;;5074041;28;20460;-67
2024/03/31 05:20:21;;;;;;;73.33;9.20;;;;;;;;;;5073354;28;20955;-67
2024/03/31 05:22:47;;;;;;;69.17;9.60;;;;;;;;;;5073864;28;20448;-67
2024/03/31 05:25:16;;;;;;;69.43;7.57;;;;;;;;;;5073843;28;20484;-67
2024/03/31 05:27:42;;;;;;;63.30;7.17;;;;;;;;;;5073906;28;20474;-67
2024/03/31 05:30:09;;;;;;;70.37;7.37;;;;;;;;;;5073156;28;20940;-67
2024/03/31 05:32:36;;;;;;;61.10;7.23;;;;;;;;;;5073479;28;20864;-67
2024/03/31 05:35:03;;;;;;;71.30;7.27;;;;;;;;;;5073426;28;20448;-67
2024/03/31 05:37:29;;;;;;;68.53;7.23;;;;;;;;;;5073589;28;20472;-67
2024/03/31 05:39:56;;;;;;;67.10;7.07;;;;;;;;;;5073135;28;20476;-67
2024/03/31 05:42:23;;;;;;;63.27;6.80;;;;;;;;;;5073396;28;20444;-67
2024/03/31 05:44:50;;;;;;;66.90;7.70;;;;;;;;;;5073442;28;20514;-67
2024/03/31 05:47:16;;;;;;;69.93;7.53;;;;;;;;;;5073761;28;20444;-67
2024/03/31 05:49:43;;;;;;;67.43;7.50;;;;;;;;;;5072814;28;21149;-67
2024/03/31 05:52:09;;;;;;;67.23;8.33;;;;;;;;;;5073159;28;20978;-67
2024/03/31 05:54:37;;;;;;;73.57;6.70;;;;;;;;;;5073335;28;20451;-67
2024/03/31 05:57:03;;;;;;;65.80;6.50;;;;;;;;;;5073471;28;20447;-67
2024/03/31 05:59:31;;;;;;;62.67;7.23;;;;;;;;;;5072650;28;20474;-67
2024/03/31 06:01:57;;;;;;;63.97;8.27;;;;;;;;;;5072667;28;20895;-67
2024/03/31 06:04:24;;;;;;;63.70;7.20;;;;;;;;;;5073269;28;20490;-67
2024/03/31 06:06:50;;;;;;;67.70;8.03;;;;;;;;;;5072860;28;20447;-67
2024/03/31 06:09:18;;;;;;;65.37;6.80;;;;;;;;;;5072621;28;20463;-67
2024/03/31 06:11:44;;;;;;;67.60;7.93;;;;;;;;;;5072682;28;20455;-67
2024/03/31 06:14:11;;;;;;;66.77;7.63;;;;;;;;;;5072748;28;20459;-67
2024/03/31 06:16:38;;;;;;;71.07;8.60;;;;;;;;;;5072713;28;20448;-67
2024/03/31 06:19:05;;;;;;;70.30;7.17;;;;;;;;;;5068629;28;20473;-67
2024/03/31 06:21:31;;;;;;;70.67;7.63;;;;;;;;;;5052715;28;20449;-67
2024/03/31 06:23:58;;;;;;;64.17;6.93;;;;;;;;;;5052618;28;20819;-67
2024/03/31 06:26:24;;;;;;;66.50;7.60;;;;;;;;;;5052986;28;20449;-67
2024/03/31 06:28:51;;;;;;;65.70;7.43;;;;;;;;;;5052563;28;20504;-67
2024/03/31 06:31:18;;;;;;;69.33;7.70;;;;;;;;;;5051790;28;20448;-67
2024/03/31 06:33:46;;;;;;;69.70;7.60;;;;;;;;;;5052427;28;20456;-67
2024/03/31 06:36:12;;;;;;;65.70;7.07;;;;;;;;;;5052749;28;20448;-67
2024/03/31 06:38:39;;;;;;;63.00;7.80;;;;;;;;;;5052444;28;20901;-66
2024/03/31 06:41:05;;;;;;;70.70;8.10;;;;;;;;;;5052047;28;20451;-66
2024/03/31 06:43:32;;;;;;;70.37;7.43;;;;;;;;;;5052124;28;20483;-67
2024/03/31 06:45:59;;;;;;;65.80;7.43;;;;;;;;;;5052116;28;20507;-67
2024/03/31 06:48:26;;;;;;;64.70;6.50;;;;;;;;;;5052143;28;20468;-67
2024/03/31 06:50:53;;;;;;;65.30;7.43;;;;;;;;;;5051545;28;20451;-66
2024/03/31 06:53:20;;;;;;;68.60;8.10;;;;;;;;;;5052030;28;20480;-67
2024/03/31 06:55:46;;;;;;;70.70;7.67;;;;;;;;;;5051914;28;20437;-67
2024/03/31 06:58:13;;;;;;;66.13;7.40;;;;;;;;;;5051958;28;20543;-67
2024/03/31 07:00:40;;;;;;;67.90;8.10;;;;;;;;;;5051358;28;20953;-67
2024/03/31 07:03:07;;;;;;;68.23;7.23;;;;;;;;;;5051710;28;20480;-67
2024/03/31 07:05:33;;;;;;;65.07;8.37;;;;;;;;;;5051757;28;20497;-67
2024/03/31 07:08:01;;;;;;;70.43;7.20;;;;;;;;;;5051506;28;21052;-67
2024/03/31 07:10:28;;;;;;;68.93;8.50;;;;;;;;;;5051167;28;20532;-67
2024/03/31 07:12:55;;;;;;;65.70;7.03;;;;;;;;;;5051422;28;20448;-67
2024/03/31 07:15:21;;;;;;;66.00;6.80;;;;;;;;;;5051771;28;20449;-67
2024/03/31 07:17:49;;;;;;;79.13;7.53;;;;;;;;;;5050985;28;20547;-67
2024/03/31 07:20:15;;;;;;;69.77;7.83;;;;;;;;;;5051061;28;20440;-67
2024/03/31 07:22:42;;;;;;;72.10;7.27;;;;;;;;;;5051485;28;20500;-67
2024/03/31 07:25:10;;;;;;;66.53;6.40;;;;;;;;;;5051450;28;20484;-68
2024/03/31 07:27:37;;;;;;;74.63;6.87;;;;;;;;;;5051417;28;20512;-68
2024/03/31 07:30:03;;;;;;;70.03;7.97;;;;;;;;;;5051042;28;20445;-67
2024/03/31 07:32:30;;;;;;;70.07;6.93;;;;;;;;;;5051705;28;20821;-68
2024/03/31 07:34:56;;;;;;;64.33;6.17;;;;;;;;;;5051359;28;20461;-67
2024/03/31 07:37:24;;;;;;;66.13;6.03;;;;;;;;;;5051436;28;20498;-67
2024/03/31 07:39:51;;;;;;;80.50;6.37;;;;;;;;;;5050861;28;20469;-67
2024/03/31 07:42:19;;;;;;;65.13;6.30;;;;;;;;;;5051428;28;20510;-67
2024/03/31 07:44:45;;;;;;;67.33;5.67;;;;;;;;;;5051087;28;20484;-66
2024/03/31 07:47:12;;;;;;;63.73;5.90;;;;;;;;;;5051379;28;20543;-66
2024/03/31 07:49:39;;;;;;;67.07;6.57;;;;;;;;;;5050770;28;20449;-66
2024/03/31 07:52:06;;;;;;;66.37;6.50;;;;;;;;;;5051053;28;20441;-67
2024/03/31 07:54:32;;;;;;;61.53;5.17;;;;;;;;;;5051052;28;20451;-66
2024/03/31 07:56:59;;;;;;;64.50;5.90;;;;;;;;;;5051269;28;20472;-66
2024/03/31 07:59:27;;;;;;;71.40;5.80;;;;;;;;;;5050819;28;20468;-66
2024/03/31 08:01:54;;;;;;;65.33;6.03;;;;;;;;;;5050919;28;20535;-66
2024/03/31 08:04:20;;;;;;;74.10;5.60;;;;;;;;;;5051408;28;20451;-67
2024/03/31 08:06:47;;;;;;;70.37;5.03;;;;;;;;;;5051057;28;20491;-66
2024/03/31 08:09:13;;;;;;;69.37;5.63;;;;;;;;;;5050410;28;20469;-66
2024/03/31 08:11:40;;;;;;;65.30;5.50;;;;;;;;;;5067398;28;20452;-67
2024/03/31 08:14:07;;;;;;;59.70;4.60;;;;;;;;;;5071107;28;20441;-67
2024/03/31 08:16:36;;;;;;;64.33;4.27;;;;;;;;;;5071192;28;20474;-67
2024/03/31 08:19:02;;;;;;;64.77;5.70;;;;;;;;;;5070503;28;20474;-67
2024/03/31 08:21:29;;;;;;;63.27;5.60;;;;;;;;;;5071177;28;20444;-67
2024/03/31 08:23:56;;;;;;;63.80;5.53;;;;;;;;;;5070774;28;20455;-67
2024/03/31 08:26:22;;;;;;;67.40;5.20;;;;;;;;;;5071055;28;20484;-67
2024/03/31 08:28:49;;;;;;;63.07;5.03;;;;;;;;;;5071682;28;20843;-67
2024/03/31 08:31:15;;;;;;;65.10;5.00;;;;;;;;;;5074386;28;20448;-67
2024/03/31 08:33:46;;;;;;;61.77;4.83;;;;;;;;;;5074481;28;20501;-67
2024/03/31 08:36:12;;;;;;;67.53;5.83;;;;;;;;;;5074752;28;20535;-67
2024/03/31 08:38:39;;;;;;;70.10;4.90;;;;;;;;;;5074798;28;20551;-67
2024/03/31 08:41:06;;;;;;;64.83;4.83;;;;;;;;;;5074276;28;20443;-67
2024/03/31 08:43:37;;;;;;;71.47;5.23;;;;;;;;;;5074313;28;20450;-67
2024/03/31 08:46:03;;;;;;;65.27;4.87;;;;;;;;;;5074766;28;20480;-67
2024/03/31 08:48:32;;;;;;;65.83;4.53;;;;;;;;;;5074274;28;20836;-67
2024/03/31 08:51:00;;;;;;;79.10;5.13;;;;;;;;;;5073924;28;20449;-67
2024/03/31 08:53:28;;;;;;;64.67;4.73;;;;;;;;;;5074263;28;20452;-67
2024/03/31 08:55:54;;;;;;;69.73;4.80;;;;;;;;;;5074335;28;20816;-67
2024/03/31 08:58:21;;;;;;;67.80;5.07;;;;;;;;;;5074144;28;20554;-67
2024/03/31 09:00:48;;;;;;;70.83;5.60;;;;;;;;;;5073682;28;20542;-67
2024/03/31 09:03:15;;;;;;;63.33;4.37;;;;;;;;;;5073936;28;20555;-67
2024/03/31 09:05:41;;;;;;;66.83;4.17;;;;;;;;;;5073942;28;20846;-67
2024/03/31 09:08:09;;;;;;;72.10;4.10;;;;;;;;;;5073911;28;20514;-68
2024/03/31 09:10:36;;;;;;;64.17;4.83;;;;;;;;;;5073734;28;20925;-68
2024/03/31 09:13:06;;;;;;;68.67;5.07;;;;;;;;;;5073851;28;20452;-68
2024/03/31 09:15:33;;;;;;;66.63;4.60;;;;;;;;;;5073950;28;20943;-67
2024/03/31 09:18:00;;;;;;;68.60;4.73;;;;;;;;;;5071842;28;20920;-67
2024/03/31 09:20:26;;;;;;;65.63;5.50;;;;;;;;;;5053359;28;20447;-67
2024/03/31 09:22:53;;;;;;;64.30;4.80;;;;;;;;;;5053503;28;20449;-67
2024/03/31 09:25:21;;;;;;;67.80;3.90;;;;;;;;;;5053774;28;20485;-67
2024/03/31 09:27:48;;;;;;;63.13;4.60;;;;;;;;;;5053722;28;20566;-67
2024/03/31 09:30:14;;;;;;;60.80;4.50;;;;;;;;;;5053261;28;20459;-67
2024/03/31 09:32:41;;;;;;;67.30;4.70;;;;;;;;;;5053686;28;20564;-67
2024/03/31 09:35:08;;;;;;;67.70;4.50;;;;;;;;;;5072931;28;20452;-67
2024/03/31 09:37:38;;;;;;;67.07;5.07;;;;;;;;;;5073550;28;20521;-67
2024/03/31 09:40:05;;;;;;;66.77;5.13;;;;;;;;;;5072703;28;20444;-67
2024/03/31 09:42:33;;;;;;;63.50;4.47;;;;;;;;;;5072911;28;20452;-67
2024/03/31 09:45:01;;;;;;;65.80;4.47;;;;;;;;;;5073201;28;20869;-67
2024/03/31 09:47:30;;;;;;;62.60;3.70;;;;;;;;;;5073428;28;20451;-67
2024/03/31 09:50:00;;;;;;;63.90;3.93;;;;;;;;;;5072784;28;20450;-67
2024/03/31 09:52:30;;;;;;;64.67;3.80;;;;;;;;;;5073250;28;20498;-67
2024/03/31 09:54:57;;;;;;;68.63;4.83;;;;;;;;;;5073131;28;20968;-67
2024/03/31 09:57:28;;;;;;;62.90;4.20;;;;;;;;;;5073014;28;20527;-67
2024/03/31 09:59:56;;;;;;;64.37;4.27;;;;;;;;;;5072828;28;20810;-67
2024/03/31 10:02:27;;;;;;;65.40;5.30;;;;;;;;;;5072778;28;20547;-67
2024/03/31 10:04:56;;;;;;;66.20;4.13;;;;;;;;;;5073002;28;20444;-67
2024/03/31 10:07:23;;;;;;;66.67;4.70;;;;;;;;;;5073019;28;20882;-67
2024/03/31 10:09:50;;;;;;;65.73;4.33;;;;;;;;;;5072415;28;20454;-68
2024/03/31 10:12:18;;;;;;;62.70;4.40;;;;;;;;;;5072641;28;20928;-67
2024/03/31 10:14:45;;;;;;;62.67;4.67;;;;;;;;;;5072877;28;20445;-68
2024/03/31 10:17:14;;;;;;;66.30;4.20;;;;;;;;;;5072399;28;20444;-69
2024/03/31 10:19:41;;;;;;;68.17;3.80;;;;;;;;;;5072290;28;20451;-68
2024/03/31 10:22:09;;;;;;;68.80;4.73;;;;;;;;;;5072448;28;20467;-68
2024/03/31 10:24:36;;;;;;;63.47;3.93;;;;;;;;;;5072459;28;20813;-67
2024/03/31 10:27:05;;;;;;;65.27;3.30;;;;;;;;;;5072709;28;20888;-67
2024/03/31 10:29:32;;;;;;;64.93;4.37;;;;;;;;;;5072048;28;20478;-67
2024/03/31 10:31:59;;;;;;;61.93;3.80;;;;;;;;;;5072147;28;20444;-67
2024/03/31 10:34:26;;;;;;;64.87;3.63;;;;;;;;;;5072442;28;20456;-66
2024/03/31 10:36:54;;;;;;;61.93;3.70;;;;;;;;;;5072363;28;20502;-67
2024/03/31 10:39:21;;;;;;;65.43;3.70;;;;;;;;;;5072020;28;20825;-66
2024/03/31 10:41:48;;;;;;;67.40;4.00;;;;;;;;;;5072363;28;20448;-67
2024/03/31 10:44:15;;;;;;;63.20;4.03;;;;;;;;;;5072217;28;20450;-67
2024/03/31 10:46:43;;;;;;;64.57;3.50;;;;;;;;;;5072263;28;20490;-67
2024/03/31 10:49:10;;;;;;;65.00;4.23;;;;;;;;;;5071437;28;20463;-67
2024/03/31 10:51:41;;;;;;;64.50;3.60;;;;;;;;;;5071613;28;20816;-67
2024/03/31 10:54:26;;;;;;;71.20;4.17;;;;;;;;;;5071411;28;20444;-67
2024/03/31 10:56:59;;;;;;;72.23;4.10;;;;;;;;;;5071907;28;20539;-67
2024/03/31 10:59:27;;;;;;;62.80;3.90;;;;;;;;;;5071476;28;20474;-67
2024/03/31 11:01:54;;;;;;;67.57;4.37;;;;;;;;;;5071603;28;20448;-67
2024/03/31 11:04:20;;;;;;;63.07;4.70;;;;;;;;;;5071934;28;20927;-67
2024/03/31 11:06:49;;;;;;;62.80;4.00;;;;;;;;;;5071784;28;20516;-67
2024/03/31 11:09:15;;;;;;;68.83;4.37;;;;;;;;;;5071296;28;20533;-67
2024/03/31 11:11:44;;;;;;;63.27;3.93;;;;;;;;;;5071631;28;20539;-67
2024/03/31 11:14:10;;;;;;;69.53;4.97;;;;;;;;;;5071552;28;20459;-67
2024/03/31 11:16:37;;;;;;;64.13;4.00;;;;;;;;;;5071612;28;20470;-67
2024/03/31 11:19:05;;;;;;;61.63;3.30;;;;;;;;;;5071160;28;20468;-68
2024/03/31 11:21:32;;;;;;;68.90;4.77;;;;;;;;;;5071504;28;20887;-67
2024/03/31 11:24:00;;;;;;;63.37;4.17;;;;;;;;;;5071428;28;20970;-68
2024/03/31 11:26:28;;;;;;;64.10;4.20;;;;;;;;;;5071473;28;20475;-68
2024/03/31 11:28:54;;;;;;;65.23;4.93;;;;;;;;;;5071331;28;20471;-68
2024/03/31 11:31:22;;;;;;;67.27;5.10;;;;;;;;;;5070963;28;20479;-68
2024/03/31 11:33:48;;;;;;;76.33;16.83;;;;;;;;;;5071436;28;20509;-68
2024/03/31 11:36:17;;;;;;;68.07;7.90;;;;;;;;;;5071467;28;20802;-67
2024/03/31 11:38:43;;;;;;;64.37;4.60;;;;;;;;;;5071322;28;20466;-67
2024/03/31 11:41:12;;;;;;;62.60;4.63;;;;;;;;;;5070945;28;20485;-67
2024/03/31 11:43:38;;;;;;;62.37;5.10;;;;;;;;;;5071069;28;20549;-67
2024/03/31 11:46:05;;;;;;;65.00;3.90;;;;;;;;;;5071304;28;20480;-67
2024/03/31 11:48:31;;;;;;;62.40;3.93;;;;;;;;;;5071379;28;20467;-67
2024/03/31 11:50:58;;;;;;;65.43;4.10;;;;;;;;;;5070850;28;20805;-67
2024/03/31 11:53:25;;;;;;;65.60;4.20;;;;;;;;;;5071027;28;20793;-68
2024/03/31 11:55:52;;;;;;;70.20;3.63;;;;;;;;;;5071237;28;20443;-66
2024/03/31 11:58:19;;;;;;;64.30;3.43;;;;;;;;;;5070880;28;20550;-67
2024/03/31 12:00:53;;;;;;;65.30;4.57;;;;;;;;;;5070748;28;20978;-67
2024/03/31 12:03:19;;;;;;;64.20;4.33;;;;;;;;;;5071133;28;20467;-67
2024/03/31 12:05:47;;;;;;;74.47;3.83;;;;;;;;;;5075220;28;20475;-67
2024/03/31 12:08:13;;;;;;;60.20;3.57;;;;;;;;;;5075513;28;20830;-67
2024/03/31 12:10:41;;;;;;;61.10;3.50;;;;;;;;;;5074613;28;20483;-67
2024/03/31 12:13:07;;;;;;;62.97;4.03;;;;;;;;;;5074765;28;20598;-67
2024/03/31 12:15:35;;;;;;;63.67;3.97;;;;;;;;;;5074915;28;20933;-67
2024/03/31 12:18:01;;;;;;;65.73;3.20;;;;;;;;;;5074806;28;20471;-67
2024/03/31 12:20:28;;;;;;;64.13;3.90;;;;;;;;;;5074597;28;20450;-67
2024/03/31 12:22:55;;;;;;;68.17;4.00;;;;;;;;;;5074680;28;20443;-67
2024/03/31 12:25:22;;;;;;;64.20;3.63;;;;;;;;;;5066656;28;20440;-68
2024/03/31 12:27:48;;;;;;;72.03;4.67;;;;;;;;;;5074762;28;20466;-68
2024/03/31 12:30:16;;;;;;;65.83;5.20;;;;;;;;;;5074456;28;20451;-68
2024/03/31 12:32:43;;;;;;;71.47;5.33;;;;;;;;;;5074856;28;20448;-68
2024/03/31 12:35:10;;;;;;;62.27;4.30;;;;;;;;;;5074572;28;20456;-68
2024/03/31 12:37:37;;;;;;;66.83;3.50;;;;;;;;;;5074653;28;20971;-68
2024/03/31 12:40:06;;;;;;;68.73;4.10;;;;;;;;;;5073984;28;20530;-67
2024/03/31 12:42:32;;;;;;;67.10;4.13;;;;;;;;;;5074543;28;20852;-67
2024/03/31 12:45:00;;;;;;;61.50;3.80;;;;;;;;;;5074472;28;20858;-68
2024/03/31 12:47:27;;;;;;;63.93;3.93;;;;;;;;;;5074453;28;20523;-67
2024/03/31 12:49:57;;;;;;;64.57;4.17;;;;;;;;;;5074193;28;20538;-68
2024/03/31 12:52:23;;;;;;;64.03;3.80;;;;;;;;;;5074154;28;20459;-68
2024/03/31 12:54:50;;;;;;;65.40;3.83;;;;;;;;;;5074628;28;20447;-68
2024/03/31 12:57:16;;;;;;;68.27;4.50;;;;;;;;;;5073885;28;20533;-68
2024/03/31 12:59:43;;;;;;;60.20;3.20;;;;;;;;;;5073975;28;20450;-67
2024/03/31 13:02:10;;;;;;;65.17;4.40;;;;;;;;;;5074048;28;20447;-68
2024/03/31 13:04:38;;;;;;;63.07;4.10;;;;;;;;;;5074222;28;20943;-67
2024/03/31 13:07:07;;;;;;;67.57;4.40;;;;;;;;;;5073958;28;21082;-67
2024/03/31 13:09:34;;;;;;;62.20;4.10;;;;;;;;;;5074207;28;20455;-67
2024/03/31 13:12:00;;;;;;;72.50;4.27;;;;;;;;;;5073943;28;20448;-67
2024/03/31 13:14:29;;;;;;;61.93;3.67;;;;;;;;;;5074045;28;21023;-67
2024/03/31 13:16:55;;;;;;;63.20;4.10;;;;;;;;;;5072850;28;20848;-67
2024/03/31 13:19:22;;;;;;;67.37;4.27;;;;;;;;;;5073169;28;20470;-67
2024/03/31 13:21:48;;;;;;;65.80;4.90;;;;;;;;;;5073951;28;20554;-67
2024/03/31 13:24:17;;;;;;;70.23;3.87;;;;;;;;;;5074007;28;20448;-68
2024/03/31 13:26:43;;;;;;;63.57;3.50;;;;;;;;;;5073768;28;20553;-68
2024/03/31 13:29:11;;;;;;;64.83;3.80;;;;;;;;;;5073277;28;20550;-68
2024/03/31 13:31:37;;;;;;;60.50;3.00;;;;;;;;;;5073586;28;20456;-68
2024/03/31 13:34:04;;;;;;;66.47;4.30;;;;;;;;;;5073322;28;20455;-67
2024/03/31 13:36:30;;;;;;;65.03;4.90;;;;;;;;;;5074033;28;20444;-67
2024/03/31 13:38:57;;;;;;;60.47;3.57;;;;;;;;;;5073667;28;20493;-68
2024/03/31 13:41:25;;;;;;;61.67;3.37;;;;;;;;;;5072985;28;20445;-68
2024/03/31 13:43:52;;;;;;;67.97;3.63;;;;;;;;;;5073391;28;20456;-68
2024/03/31 13:46:18;;;;;;;61.97;3.67;;;;;;;;;;5073339;28;20492;-68
2024/03/31 13:48:45;;;;;;;63.37;4.27;;;;;;;;;;5073490;28;20474;-68
2024/03/31 13:51:11;;;;;;;60.87;3.50;;;;;;;;;;5073175;28;20466;-68
2024/03/31 13:53:39;;;;;;;62.97;4.17;;;;;;;;;;5073445;28;20453;-68
2024/03/31 13:56:05;;;;;;;60.67;3.63;;;;;;;;;;5073341;28;20821;-68
2024/03/31 13:58:34;;;;;;;65.97;3.30;;;;;;;;;;5060506;28;20549;-68
2024/03/31 14:01:00;;;;;;;63.70;3.63;;;;;;;;;;5052666;28;20449;-68
2024/03/31 14:03:27;;;;;;;65.23;3.70;;;;;;;;;;5052891;28;20446;-68
2024/03/31 14:05:54;;;;;;;66.87;4.00;;;;;;;;;;5053169;28;20572;-68
2024/03/31 14:08:23;;;;;;;68.20;3.87;;;;;;;;;;5052870;28;21650;-68
2024/03/31 14:10:49;;;;;;;60.73;3.60;;;;;;;;;;5052512;28;20545;-68
2024/03/31 14:13:16;;;;;;;63.03;3.73;;;;;;;;;;5053124;28;20473;-68
2024/03/31 14:15:44;;;;;;;64.50;3.80;;;;;;;;;;5052854;28;20460;-68
2024/03/31 14:18:11;;;;;;;65.87;4.63;;;;;;;;;;5052929;28;20476;-68
2024/03/31 14:20:37;;;;;;;68.30;3.47;;;;;;;;;;5052442;28;20447;-68
2024/03/31 14:23:04;;;;;;;66.93;4.03;;;;;;;;;;5052460;28;20490;-68
2024/03/31 14:25:32;;;;;;;62.27;3.67;;;;;;;;;;5052562;28;20457;-68
2024/03/31 14:28:00;;;;;;;64.77;3.77;;;;;;;;;;5052309;28;20486;-68